Time,TemperatureF,DewpointF,PressureIn,WindDirection,WindDirectionDegrees,WindSpeedMPH,WindSpeedGustMPH,Humidity,HourlyPrecipIn,Conditions,Clouds,dailyrainin,SoftwareType,DateUTC
2013-04-06 00:07:00,35.3,25.0,29.93,WNW,284,0.0,-999.0,67,-99.99,,,0.00,weatherlink.com 1.10,2013-04-06 04:07:00,
2013-04-06 00:22:00,35.0,26.0,29.93,WNW,284,0.0,-999.0,69,-99.99,,,0.00,weatherlink.com 1.10,2013-04-06 04:22:00,
2013-04-06 00:37:00,34.4,26.0,29.94,SE,141,0.0,-999.0,70,-99.99,,,0.00,weatherlink.com 1.10,2013-04-06 04:37:00,
2013-04-06 00:52:00,33.9,25.0,29.95,SE,141,0.0,-999.0,70,-99.99,,,0.00,weatherlink.com 1.10,2013-04-06 04:52:00,
2013-04-06 01:07:00,33.6,25.0,29.95,NNW,337,2.0,-999.0,70,-99.99,,,0.00,weatherlink.com 1.10,2013-04-06 05:07:00,
2013-04-06 01:22:00,34.4,23.0,29.96,West,277,0.0,-999.0,63,-99.99,,,0.00,weatherlink.com 1.10,2013-04-06 05:22:00,
2013-04-06 01:37:00,34.4,22.0,29.96,WNW,303,0.0,-999.0,62,-99.99,,,0.00,weatherlink.com 1.10,2013-04-06 05:37:00,
2013-04-06 01:52:00,34.1,21.0,29.97,WNW,298,0.0,-999.0,60,-99.99,,,0.00,weatherlink.com 1.10,2013-04-06 05:52:00,
2013-04-06 02:07:00,33.6,20.0,29.97,NW,304,1.0,-999.0,59,-99.99,,,0.00,weatherlink.com 1.10,2013-04-06 06:07:00,
2013-04-06 02:22:00,33.1,20.0,29.98,NW,306,1.0,-999.0,59,-99.99,,,0.00,weatherlink.com 1.10,2013-04-06 06:22:00,
2013-04-06 02:37:00,32.8,19.0,29.98,NNW,339,2.0,-999.0,58,-99.99,,,0.00,weatherlink.com 1.10,2013-04-06 06:37:00,
2013-04-06 02:52:00,32.3,19.0,29.99,West,266,1.0,-999.0,59,-99.99,,,0.00,weatherlink.com 1.10,2013-04-06 06:52:00,
2013-04-06 03:07:00,32.0,19.0,30.00,WSW,249,0.0,-999.0,58,-99.99,,,0.00,weatherlink.com 1.10,2013-04-06 07:07:00,
2013-04-06 03:22:00,31.8,20.0,30.00,West,259,0.0,-999.0,61,-99.99,,,0.00,weatherlink.com 1.10,2013-04-06 07:22:00,
2013-04-06 03:37:00,32.0,19.0,30.02,West,264,1.0,-999.0,60,-99.99,,,0.00,weatherlink.com 1.10,2013-04-06 07:37:00,
2013-04-06 03:52:00,32.2,19.0,30.03,WSW,249,2.0,-999.0,58,-99.99,,,0.00,weatherlink.com 1.10,2013-04-06 07:52:00,
2013-04-06 04:08:00,31.9,18.0,30.03,WNW,298,0.0,-999.0,56,-99.99,,,0.00,weatherlink.com 1.10,2013-04-06 08:08:00,
2013-04-06 04:23:00,31.7,17.0,30.04,WNW,302,1.0,-999.0,56,-99.99,,,0.00,weatherlink.com 1.10,2013-04-06 08:23:00,
2013-04-06 04:38:00,31.2,18.0,30.05,WSW,240,3.0,-999.0,58,-99.99,,,0.00,weatherlink.com 1.10,2013-04-06 08:38:00,
2013-04-06 04:53:00,30.8,17.0,30.07,WNW,302,0.0,-999.0,56,-99.99,,,0.00,weatherlink.com 1.10,2013-04-06 08:53:00,
2013-04-06 05:08:00,30.4,16.0,30.08,WNW,290,1.0,-999.0,55,-99.99,,,0.00,weatherlink.com 1.10,2013-04-06 09:08:00,
2013-04-06 05:23:00,30.4,15.0,30.09,WNW,294,0.0,-999.0,54,-99.99,,,0.00,weatherlink.com 1.10,2013-04-06 09:23:00,
2013-04-06 05:38:00,30.0,15.0,30.11,West,275,1.0,-999.0,54,-99.99,,,0.00,weatherlink.com 1.10,2013-04-06 09:38:00,
2013-04-06 05:53:00,29.4,15.0,30.11,SSE,164,0.0,-999.0,55,-99.99,,,0.00,weatherlink.com 1.10,2013-04-06 09:53:00,
2013-04-06 06:08:00,28.9,15.0,30.12,West,263,2.0,-999.0,56,-99.99,,,0.00,weatherlink.com 1.10,2013-04-06 10:08:00,
2013-04-06 06:23:00,28.8,14.0,30.13,West,276,1.0,-999.0,54,-99.99,,,0.00,weatherlink.com 1.10,2013-04-06 10:23:00,
2013-04-06 06:38:00,28.6,15.0,30.14,West,271,0.0,-999.0,57,-99.99,,,0.00,weatherlink.com 1.10,2013-04-06 10:38:00,
2013-04-06 06:53:00,28.3,14.0,30.15,NW,309,0.0,-999.0,56,-99.99,,,0.00,weatherlink.com 1.10,2013-04-06 10:53:00,
2013-04-06 07:08:00,28.6,14.0,30.16,WNW,300,2.0,-999.0,54,-99.99,,,0.00,weatherlink.com 1.10,2013-04-06 11:08:00,
2013-04-06 07:23:00,28.8,14.0,30.17,SW,228,0.0,-999.0,54,-99.99,,,0.00,weatherlink.com 1.10,2013-04-06 11:23:00,
2013-04-06 07:38:00,29.1,14.0,30.18,East,94,0.0,-999.0,54,-99.99,,,0.00,weatherlink.com 1.10,2013-04-06 11:38:00,
2013-04-06 07:53:00,28.9,12.0,30.19,NW,306,0.0,-999.0,50,-99.99,,,0.00,weatherlink.com 1.10,2013-04-06 11:53:00,
2013-04-06 08:08:00,29.0,12.0,30.20,NNE,27,0.0,-999.0,50,-99.99,,,0.00,weatherlink.com 1.10,2013-04-06 12:08:00,
2013-04-06 08:23:00,29.5,13.0,30.21,NW,323,0.0,-999.0,50,-99.99,,,0.00,weatherlink.com 1.10,2013-04-06 12:23:00,
2013-04-06 09:24:00,34.4,12.0,30.22,NW,320,4.0,-999.0,40,-99.99,,,0.00,weatherlink.com 1.10,2013-04-06 13:24:00,
2013-04-06 09:39:00,35.3,12.0,30.23,West,273,0.0,-999.0,39,-99.99,,,0.00,weatherlink.com 1.10,2013-04-06 13:39:00,
2013-04-06 10:09:00,36.7,11.0,30.24,WSW,242,0.0,-999.0,34,-99.99,,,0.00,weatherlink.com 1.10,2013-04-06 14:09:00,
2013-04-06 10:24:00,37.0,10.0,30.25,WNW,296,1.0,-999.0,32,-99.99,,,0.00,weatherlink.com 1.10,2013-04-06 14:24:00,
2013-04-06 10:39:00,37.3,9.0,30.24,NNW,331,1.0,-999.0,31,-99.99,,,0.00,weatherlink.com 1.10,2013-04-06 14:39:00,
2013-04-06 10:54:00,38.3,10.0,30.26,West,270,0.0,-999.0,31,-99.99,,,0.00,weatherlink.com 1.10,2013-04-06 14:54:00,
2013-04-06 11:09:00,38.7,10.0,30.26,West,275,2.0,-999.0,31,-99.99,,,0.00,weatherlink.com 1.10,2013-04-06 15:09:00,
2013-04-06 11:24:00,39.3,9.0,30.26,NW,319,2.0,-999.0,28,-99.99,,,0.00,weatherlink.com 1.10,2013-04-06 15:24:00,
2013-04-06 11:39:00,40.4,11.0,30.26,NNW,348,1.0,-999.0,30,-99.99,,,0.00,weatherlink.com 1.10,2013-04-06 15:39:00,
2013-04-06 11:54:00,40.5,10.0,30.26,WSW,250,0.0,-999.0,29,-99.99,,,0.00,weatherlink.com 1.10,2013-04-06 15:54:00,
2013-04-06 12:09:00,41.1,11.0,30.26,NW,316,1.0,-999.0,29,-99.99,,,0.00,weatherlink.com 1.10,2013-04-06 16:09:00,
2013-04-06 12:24:00,42.0,10.0,30.27,SSE,166,10.0,-999.0,27,-99.99,,,0.00,weatherlink.com 1.10,2013-04-06 16:24:00,
2013-04-06 12:39:00,42.0,11.0,30.26,West,269,3.0,-999.0,28,-99.99,,,0.00,weatherlink.com 1.10,2013-04-06 16:39:00,
2013-04-06 12:54:00,42.7,9.0,30.26,SW,221,4.0,-999.0,25,-99.99,,,0.00,weatherlink.com 1.10,2013-04-06 16:54:00,
2013-04-06 13:09:00,42.6,10.0,30.26,West,260,1.0,-999.0,26,-99.99,,,0.00,weatherlink.com 1.10,2013-04-06 17:09:00,
2013-04-06 13:24:00,43.9,11.0,30.25,NW,315,2.0,-999.0,26,-99.99,,,0.00,weatherlink.com 1.10,2013-04-06 17:24:00,
2013-04-06 13:39:00,44.4,10.0,30.26,West,263,3.0,-999.0,24,-99.99,,,0.00,weatherlink.com 1.10,2013-04-06 17:39:00,
2013-04-06 13:54:00,44.8,12.0,30.26,WNW,301,1.0,-999.0,26,-99.99,,,0.00,weatherlink.com 1.10,2013-04-06 17:54:00,
2013-04-06 14:09:00,45.0,11.0,30.26,South,176,1.0,-999.0,25,-99.99,,,0.00,weatherlink.com 1.10,2013-04-06 18:09:00,
2013-04-06 14:24:00,44.9,11.0,30.26,SW,232,1.0,-999.0,25,-99.99,,,0.00,weatherlink.com 1.10,2013-04-06 18:24:00,
2013-04-06 14:39:00,45.9,13.0,30.26,East,88,1.0,-999.0,27,-99.99,,,0.00,weatherlink.com 1.10,2013-04-06 18:39:00,
2013-04-06 14:54:00,46.3,12.0,30.26,NNW,334,1.0,-999.0,25,-99.99,,,0.00,weatherlink.com 1.10,2013-04-06 18:54:00,
2013-04-06 15:09:00,46.3,13.0,30.25,SSW,204,1.0,-999.0,26,-99.99,,,0.00,weatherlink.com 1.10,2013-04-06 19:09:00,
2013-04-06 15:24:00,45.7,12.0,30.25,NNW,339,2.0,-999.0,26,-99.99,,,0.00,weatherlink.com 1.10,2013-04-06 19:24:00,
2013-04-06 15:39:00,46.4,12.0,30.25,NE,53,0.0,-999.0,25,-99.99,,,0.00,weatherlink.com 1.10,2013-04-06 19:39:00,
2013-04-06 15:54:00,45.7,11.0,30.25,SW,231,0.0,-999.0,24,-99.99,,,0.00,weatherlink.com 1.10,2013-04-06 19:54:00,
2013-04-06 16:09:00,44.5,11.0,30.26,WSW,248,0.0,-999.0,26,-99.99,,,0.00,weatherlink.com 1.10,2013-04-06 20:09:00,
2013-04-06 16:24:00,43.8,10.0,30.26,SW,219,0.0,-999.0,25,-99.99,,,0.00,weatherlink.com 1.10,2013-04-06 20:24:00,
2013-04-06 16:39:00,43.3,9.0,30.26,WSW,258,0.0,-999.0,24,-99.99,,,0.00,weatherlink.com 1.10,2013-04-06 20:39:00,
2013-04-06 16:54:00,43.1,9.0,30.27,NNE,20,0.0,-999.0,25,-99.99,,,0.00,weatherlink.com 1.10,2013-04-06 20:54:00,
2013-04-06 17:09:00,43.0,9.0,30.27,West,263,0.0,-999.0,25,-99.99,,,0.00,weatherlink.com 1.10,2013-04-06 21:09:00,
2013-04-06 17:24:00,42.7,10.0,30.27,NE,51,0.0,-999.0,26,-99.99,,,0.00,weatherlink.com 1.10,2013-04-06 21:24:00,
2013-04-06 17:39:00,42.2,9.0,30.28,West,277,0.0,-999.0,26,-99.99,,,0.00,weatherlink.com 1.10,2013-04-06 21:39:00,
2013-04-06 17:54:00,42.0,11.0,30.29,SSE,162,0.0,-999.0,28,-99.99,,,0.00,weatherlink.com 1.10,2013-04-06 21:54:00,
2013-04-06 18:09:00,41.3,12.0,30.30,SW,234,0.0,-999.0,30,-99.99,,,0.00,weatherlink.com 1.10,2013-04-06 22:09:00,
2013-04-06 18:24:00,40.8,10.0,30.30,SW,234,1.0,-999.0,28,-99.99,,,0.00,weatherlink.com 1.10,2013-04-06 22:24:00,
2013-04-06 18:39:00,40.0,11.0,30.31,North,11,0.0,-999.0,31,-99.99,,,0.00,weatherlink.com 1.10,2013-04-06 22:39:00,
2013-04-06 18:54:00,39.0,13.0,30.32,North,5,0.0,-999.0,34,-99.99,,,0.00,weatherlink.com 1.10,2013-04-06 22:54:00,
2013-04-06 19:09:00,38.1,11.0,30.32,North,5,0.0,-999.0,32,-99.99,,,0.00,weatherlink.com 1.10,2013-04-06 23:09:00,
2013-04-06 19:24:00,37.0,10.0,30.32,North,5,0.0,-999.0,32,-99.99,,,0.00,weatherlink.com 1.10,2013-04-06 23:24:00,
2013-04-06 19:39:00,35.7,11.0,30.33,North,5,0.0,-999.0,36,-99.99,,,0.00,weatherlink.com 1.10,2013-04-06 23:39:00,
2013-04-06 19:55:00,34.2,10.0,30.34,North,5,0.0,-999.0,37,-99.99,,,0.00,weatherlink.com 1.10,2013-04-06 23:55:00,
2013-04-06 20:10:00,33.0,10.0,30.34,North,5,0.0,-999.0,39,-99.99,,,0.00,weatherlink.com 1.10,2013-04-07 00:10:00,
2013-04-06 20:25:00,31.7,9.0,30.35,North,5,0.0,-999.0,38,-99.99,,,0.00,weatherlink.com 1.10,2013-04-07 00:25:00,
2013-04-06 20:40:00,30.8,11.0,30.35,North,5,0.0,-999.0,43,-99.99,,,0.00,weatherlink.com 1.10,2013-04-07 00:40:00,
2013-04-06 20:55:00,29.7,9.0,30.36,North,5,0.0,-999.0,42,-99.99,,,0.00,weatherlink.com 1.10,2013-04-07 00:55:00,
2013-04-06 21:10:00,28.9,10.0,30.36,North,5,0.0,-999.0,45,-99.99,,,0.00,weatherlink.com 1.10,2013-04-07 01:10:00,
2013-04-06 21:25:00,27.9,9.0,30.36,North,5,0.0,-999.0,45,-99.99,,,0.00,weatherlink.com 1.10,2013-04-07 01:25:00,
2013-04-06 21:40:00,27.1,8.0,30.36,North,5,0.0,-999.0,45,-99.99,,,0.00,weatherlink.com 1.10,2013-04-07 01:40:00,
2013-04-06 21:55:00,26.4,9.0,30.37,North,5,0.0,-999.0,47,-99.99,,,0.00,weatherlink.com 1.10,2013-04-07 01:55:00,
2013-04-06 22:10:00,25.9,9.0,30.36,North,5,0.0,-999.0,50,-99.99,,,0.00,weatherlink.com 1.10,2013-04-07 02:10:00,
2013-04-06 22:25:00,25.6,10.0,30.37,North,5,0.0,-999.0,52,-99.99,,,0.00,weatherlink.com 1.10,2013-04-07 02:25:00,
2013-04-06 22:40:00,25.7,10.0,30.37,North,5,0.0,-999.0,51,-99.99,,,0.00,weatherlink.com 1.10,2013-04-07 02:40:00,
2013-04-06 22:55:00,25.6,10.0,30.37,North,5,0.0,-999.0,52,-99.99,,,0.00,weatherlink.com 1.10,2013-04-07 02:55:00,
2013-04-06 23:10:00,25.5,10.0,30.37,North,5,0.0,-999.0,53,-99.99,,,0.00,weatherlink.com 1.10,2013-04-07 03:10:00,
2013-04-06 23:25:00,25.2,11.0,30.37,North,5,0.0,-999.0,54,-99.99,,,0.00,weatherlink.com 1.10,2013-04-07 03:25:00,
2013-04-06 23:40:00,24.8,11.0,30.38,North,5,0.0,-999.0,56,-99.99,,,0.00,weatherlink.com 1.10,2013-04-07 03:40:00,
2013-04-06 23:55:00,24.7,11.0,30.38,North,5,0.0,-999.0,56,-99.99,,,0.00,weatherlink.com 1.10,2013-04-07 03:55:00,